Time,TemperatureF,DewpointF,PressureIn,WindDirection,WindDirectionDegrees,WindSpeedMPH,WindSpeedGustMPH,Humidity,HourlyPrecipIn,Conditions,Clouds,dailyrainin,SoftwareType,DateUTC
2013-10-30 00:13:00,45.0,44.0,30.30,SSW,192,0.0,-999.0,95,-99.99,,,-99.99,,2013-10-30 04:13:00,
2013-10-30 00:44:00,45.0,44.0,30.30,SSW,192,0.0,-999.0,95,-99.99,,,-99.99,,2013-10-30 04:44:00,
2013-10-30 00:53:00,45.0,44.0,30.29,SSW,192,0.0,-999.0,95,-99.99,,,-99.99,,2013-10-30 04:53:00,
2013-10-30 01:13:00,45.0,44.0,30.29,SSW,192,0.0,-999.0,95,-99.99,,,-99.99,,2013-10-30 05:13:00,
2013-10-30 04:22:00,45.0,-99.9,30.24,SSW,192,0.0,-999.0,-999,-99.99,,,-99.99,,2013-10-30 08:22:00,
2013-10-30 04:42:00,45.0,44.0,30.24,SSW,192,0.0,-999.0,97,-99.99,,,-99.99,,2013-10-30 08:42:00,
2013-10-30 04:52:00,45.0,44.0,30.24,SSW,192,0.0,-999.0,97,-99.99,,,-99.99,,2013-10-30 08:52:00,
2013-10-30 05:11:00,45.0,44.0,30.25,SSW,192,0.0,-999.0,97,-99.99,,,-99.99,,2013-10-30 09:11:00,
2013-10-30 07:22:00,47.0,46.0,30.24,SSW,192,0.0,-999.0,98,-99.99,,,-99.99,,2013-10-30 11:22:00,
2013-10-30 07:42:00,48.0,47.0,30.24,SSW,192,0.0,-999.0,98,-99.99,,,-99.99,,2013-10-30 11:42:00,
2013-10-30 07:52:00,48.0,47.0,30.25,SSW,192,0.0,-999.0,98,-99.99,,,-99.99,,2013-10-30 11:52:00,
2013-10-30 08:12:00,49.0,48.0,30.23,SSW,192,0.0,-999.0,98,-99.99,,,-99.99,,2013-10-30 12:12:00,
2013-10-30 12:12:00,57.0,57.0,30.22,South,172,1.0,-999.0,99,-99.99,,,-99.99,,2013-10-30 16:12:00,
2013-10-30 12:23:00,59.0,57.0,30.21,SE,136,1.0,-999.0,93,-99.99,,,-99.99,,2013-10-30 16:23:00,
2013-10-30 12:43:00,61.0,57.0,30.21,SE,138,0.0,-999.0,87,-99.99,,,-99.99,,2013-10-30 16:43:00,
2013-10-30 12:53:00,60.0,55.0,30.21,SE,130,0.0,-999.0,85,-99.99,,,-99.99,,2013-10-30 16:53:00,
2013-10-30 13:23:00,60.0,56.0,30.19,SSE,161,0.0,-999.0,86,-99.99,,,-99.99,,2013-10-30 17:23:00,
2013-10-30 13:42:00,61.0,56.0,30.18,SSW,192,0.0,-999.0,85,-99.99,,,-99.99,,2013-10-30 17:42:00,
2013-10-30 13:52:00,61.0,57.0,30.17,SSW,213,0.0,-999.0,88,-99.99,,,-99.99,,2013-10-30 17:52:00,
2013-10-30 14:12:00,63.0,58.0,30.16,SSE,164,1.0,-999.0,83,-99.99,,,-99.99,,2013-10-30 18:12:00,
2013-10-30 14:22:00,63.0,58.0,30.16,SSE,161,0.0,-999.0,84,-99.99,,,-99.99,,2013-10-30 18:22:00,
2013-10-30 14:42:00,64.0,58.0,30.15,SSW,208,0.0,-999.0,81,-99.99,,,-99.99,,2013-10-30 18:42:00,
2013-10-30 14:52:00,64.0,58.0,30.15,SE,130,0.0,-999.0,82,-99.99,,,-99.99,,2013-10-30 18:52:00,
2013-10-30 15:11:00,64.0,58.0,30.14,SE,130,1.0,-999.0,81,-99.99,,,-99.99,,2013-10-30 19:11:00,
2013-10-30 15:22:00,64.0,58.0,30.14,South,190,0.0,-999.0,81,-99.99,,,-99.99,,2013-10-30 19:22:00,
2013-10-30 15:52:00,64.0,58.0,30.13,SE,144,0.0,-999.0,81,-99.99,,,-99.99,,2013-10-30 19:52:00,
2013-10-30 16:12:00,64.0,58.0,30.12,SSW,199,0.0,-999.0,80,-99.99,,,-99.99,,2013-10-30 20:12:00,
2013-10-30 16:22:00,64.0,58.0,30.12,SSE,156,0.0,-999.0,81,-99.99,,,-99.99,,2013-10-30 20:22:00,
2013-10-30 16:42:00,64.0,59.0,30.13,SE,129,0.0,-999.0,83,-99.99,,,-99.99,,2013-10-30 20:42:00,
2013-10-30 16:52:00,63.0,58.0,30.13,ESE,121,0.0,-999.0,85,-99.99,,,-99.99,,2013-10-30 20:52:00,
2013-10-30 17:22:00,62.0,58.0,30.14,SSE,159,0.0,-999.0,87,-99.99,,,-99.99,,2013-10-30 21:22:00,
2013-10-30 17:53:00,60.0,56.0,30.14,ESE,121,0.0,-999.0,88,-99.99,,,-99.99,,2013-10-30 21:53:00,
2013-10-30 18:13:00,60.0,57.0,30.14,ESE,121,0.0,-999.0,89,-99.99,,,-99.99,,2013-10-30 22:13:00,
2013-10-30 18:23:00,59.0,56.0,30.14,ESE,121,0.0,-999.0,90,-99.99,,,-99.99,,2013-10-30 22:23:00,
2013-10-30 18:34:00,59.0,56.0,30.14,ESE,121,0.0,-999.0,90,-99.99,,,-99.99,,2013-10-30 22:34:00,
2013-10-30 18:43:00,59.0,56.0,30.14,ESE,121,0.0,-999.0,90,-99.99,,,-99.99,,2013-10-30 22:43:00,
2013-10-30 18:53:00,59.0,56.0,30.15,ESE,121,0.0,-999.0,91,-99.99,,,-99.99,,2013-10-30 22:53:00,
2013-10-30 19:12:00,58.0,56.0,30.16,ESE,121,0.0,-999.0,92,-99.99,,,-99.99,,2013-10-30 23:12:00,
2013-10-30 19:23:00,57.0,55.0,30.17,ESE,121,0.0,-999.0,92,-99.99,,,-99.99,,2013-10-30 23:23:00,
2013-10-30 19:42:00,57.0,55.0,30.16,ESE,121,0.0,-999.0,94,-99.99,,,-99.99,,2013-10-30 23:42:00,
2013-10-30 19:53:00,56.0,54.0,30.18,ESE,121,0.0,-999.0,94,-99.99,,,-99.99,,2013-10-30 23:53:00,
2013-10-30 20:11:00,56.0,55.0,30.18,ESE,121,0.0,-999.0,95,-99.99,,,-99.99,,2013-10-31 00:11:00,
2013-10-30 20:22:00,55.0,54.0,30.18,ESE,121,0.0,-999.0,95,-99.99,,,-99.99,,2013-10-31 00:22:00,
2013-10-30 20:42:00,54.0,53.0,30.18,ESE,121,0.0,-999.0,96,-99.99,,,-99.99,,2013-10-31 00:42:00,
2013-10-30 20:52:00,54.0,53.0,30.17,ESE,121,0.0,-999.0,96,-99.99,,,-99.99,,2013-10-31 00:52:00,
2013-10-30 21:12:00,53.0,52.0,30.17,ESE,121,0.0,-999.0,96,-99.99,,,-99.99,,2013-10-31 01:12:00,
2013-10-30 21:22:00,53.0,52.0,30.17,ESE,121,0.0,-999.0,97,-99.99,,,-99.99,,2013-10-31 01:22:00,
2013-10-30 21:42:00,52.0,51.0,30.16,ESE,121,0.0,-999.0,97,-99.99,,,-99.99,,2013-10-31 01:42:00,
2013-10-30 21:52:00,52.0,51.0,30.17,ESE,121,0.0,-999.0,97,-99.99,,,-99.99,,2013-10-31 01:52:00,
2013-10-30 22:12:00,52.0,51.0,30.17,ESE,121,0.0,-999.0,98,-99.99,,,-99.99,,2013-10-31 02:12:00,
2013-10-30 22:22:00,52.0,51.0,30.17,ESE,121,0.0,-999.0,98,-99.99,,,-99.99,,2013-10-31 02:22:00,
2013-10-30 23:12:00,51.0,50.0,30.17,ESE,121,0.0,-999.0,98,-99.99,,,-99.99,,2013-10-31 03:12:00,
2013-10-30 23:22:00,51.0,50.0,30.17,ESE,121,0.0,-999.0,98,-99.99,,,-99.99,,2013-10-31 03:22:00,
2013-10-30 23:44:00,51.0,50.0,30.17,ESE,121,0.0,-999.0,98,-99.99,,,-99.99,,2013-10-31 03:44:00,
2013-10-30 23:55:00,50.0,49.0,30.18,ESE,121,0.0,-999.0,98,-99.99,,,-99.99,,2013-10-31 03:55:00,